createdAt,value
2022-12-08T00:02:28.090Z,6.77
2022-12-08T00:05:14.430Z,5.83
2022-12-08T00:08:01.928Z,5.93
2022-12-08T00:13:21.001Z,5.83
2022-12-08T00:15:49.561Z,7.60
2022-12-08T00:18:18.111Z,6.63
2022-12-08T00:20:46.681Z,4.33
2022-12-08T00:23:16.705Z,7.07
2022-12-08T00:25:45.275Z,4.63
2022-12-08T00:28:13.812Z,9.83
2022-12-08T00:30:42.658Z,4.07
2022-12-08T00:33:13.295Z,4.73
2022-12-08T00:35:43.390Z,5.97
2022-12-08T00:38:12.085Z,6.20
2022-12-08T00:40:45.573Z,3.17
2022-12-08T00:43:14.410Z,4.60
2022-12-08T00:45:43.104Z,5.80
2022-12-08T00:48:11.772Z,6.67
2022-12-08T00:50:40.400Z,6.17
2022-12-08T00:53:08.907Z,4.37
2022-12-08T00:55:37.626Z,3.77
2022-12-08T00:58:07.736Z,3.50
2022-12-08T01:00:36.279Z,6.37
2022-12-08T01:03:05.068Z,5.67
2022-12-08T01:05:33.854Z,3.77
2022-12-08T01:08:02.473Z,5.00
2022-12-08T01:10:31.144Z,3.33
2022-12-08T01:13:00.353Z,6.73
2022-12-08T01:15:30.394Z,4.53
2022-12-08T01:17:58.962Z,5.43
2022-12-08T01:20:27.488Z,5.83
2022-12-08T01:22:56.079Z,3.57
2022-12-08T01:25:24.680Z,4.27
2022-12-08T01:27:54.021Z,5.63
2022-12-08T01:30:22.849Z,6.43
2022-12-08T01:32:52.810Z,5.37
2022-12-08T01:35:21.417Z,2.40
2022-12-08T01:37:51.515Z,4.20
2022-12-08T01:40:20.193Z,2.70
2022-12-08T01:42:48.800Z,4.50
2022-12-08T01:45:26.004Z,5.47
2022-12-08T01:48:00.096Z,3.20
2022-12-08T01:50:29.822Z,5.90
2022-12-08T01:53:02.799Z,5.20
2022-12-08T01:55:34.837Z,7.67
2022-12-08T01:58:08.400Z,3.97
2022-12-08T02:00:37.842Z,8.77
2022-12-08T02:03:12.406Z,4.97
2022-12-08T02:05:42.564Z,4.13
2022-12-08T02:08:13.933Z,7.17
2022-12-08T02:10:44.207Z,5.53
2022-12-08T02:13:16.201Z,3.70
2022-12-08T02:15:59.926Z,7.60
2022-12-08T02:18:57.641Z,5.67
2022-12-08T02:21:42.967Z,6.57
2022-12-08T02:24:19.088Z,5.50
2022-12-08T02:27:20.503Z,6.20
2022-12-08T02:30:18.850Z,4.80
2022-12-08T02:33:22.010Z,5.40
2022-12-08T02:35:59.310Z,3.17
2022-12-08T02:38:38.556Z,3.53
2022-12-08T02:41:22.309Z,7.63
2022-12-08T02:43:58.603Z,6.23
2022-12-08T02:46:32.608Z,5.47
2022-12-08T02:49:03.554Z,8.63
2022-12-08T02:51:33.497Z,7.27
2022-12-08T02:54:03.288Z,7.53
2022-12-08T02:56:59.674Z,5.87
2022-12-08T02:59:42.360Z,5.60
2022-12-08T03:02:28.972Z,5.20
2022-12-08T03:05:04.941Z,5.30
2022-12-08T03:07:40.933Z,4.43
2022-12-08T03:10:14.431Z,7.40
2022-12-08T03:12:50.155Z,8.00
2022-12-08T03:15:21.675Z,6.80
2022-12-08T03:18:00.893Z,5.30
2022-12-08T03:20:31.511Z,9.77
2022-12-08T03:23:06.192Z,8.57
2022-12-08T03:25:39.729Z,6.80
2022-12-08T03:28:08.505Z,6.17
2022-12-08T03:30:40.677Z,3.53
2022-12-08T03:33:15.806Z,4.60
2022-12-08T03:35:45.048Z,4.17
2022-12-08T03:38:17.174Z,6.40
2022-12-08T03:41:07.445Z,4.37
2022-12-08T03:43:36.966Z,5.10
2022-12-08T03:46:05.679Z,3.63
2022-12-08T03:48:34.364Z,3.47
2022-12-08T03:51:02.921Z,4.63
2022-12-08T03:53:32.905Z,7.57
2022-12-08T03:56:01.514Z,4.83
2022-12-08T03:58:35.788Z,4.73
2022-12-08T04:01:05.860Z,10.60
2022-12-08T04:03:34.384Z,10.47
2022-12-08T04:06:02.932Z,7.40
2022-12-08T04:08:32.913Z,4.27
2022-12-08T04:11:02.535Z,4.93
2022-12-08T04:13:31.156Z,3.93
2022-12-08T04:15:59.783Z,6.27
2022-12-08T04:18:28.507Z,5.87
2022-12-08T04:20:57.985Z,5.70
2022-12-08T04:23:26.564Z,4.67
2022-12-08T04:25:56.573Z,3.23
2022-12-08T04:28:25.101Z,4.27
2022-12-08T04:30:55.878Z,5.70
2022-12-08T04:33:24.666Z,4.57
2022-12-08T04:35:53.173Z,5.73
2022-12-08T04:38:21.786Z,5.17
2022-12-08T04:40:50.336Z,8.17
2022-12-08T04:43:20.510Z,6.77
2022-12-08T04:45:49.245Z,5.53
2022-12-08T04:48:17.919Z,7.33
2022-12-08T04:50:47.107Z,3.60
2022-12-08T04:53:19.857Z,8.27
2022-12-08T04:55:49.818Z,6.30
2022-12-08T04:58:21.116Z,4.27
2022-12-08T05:00:50.290Z,3.13
2022-12-08T05:03:25.151Z,5.67
2022-12-08T05:05:56.948Z,3.43
2022-12-08T05:08:25.598Z,7.07
2022-12-08T05:10:54.297Z,3.87
2022-12-08T05:13:24.257Z,5.73
2022-12-08T05:15:53.009Z,6.87
2022-12-08T05:18:21.718Z,2.10
2022-12-08T05:20:51.233Z,3.17
2022-12-08T05:23:19.798Z,6.53
2022-12-08T05:25:48.557Z,3.47
2022-12-08T05:28:40.751Z,5.00
2022-12-08T05:31:07.386Z,5.37
2022-12-08T05:33:35.984Z,3.53
2022-12-08T05:36:04.780Z,6.80
2022-12-08T05:38:33.295Z,7.03
2022-12-08T05:41:01.895Z,5.90
2022-12-08T05:43:30.460Z,6.20
2022-12-08T05:45:59.150Z,7.50
2022-12-08T05:48:29.280Z,5.63
2022-12-08T05:50:57.958Z,4.23
2022-12-08T05:53:26.468Z,6.50
2022-12-08T05:55:55.144Z,8.17
2022-12-08T05:58:24.778Z,10.53
2022-12-08T06:00:53.445Z,5.67
2022-12-08T06:03:22.304Z,4.97
2022-12-08T06:05:52.404Z,5.60
2022-12-08T06:08:21.057Z,11.00
2022-12-08T06:10:49.812Z,6.27
2022-12-08T06:13:18.475Z,9.53
2022-12-08T06:15:47.070Z,5.90
2022-12-08T06:18:15.660Z,7.20
2022-12-08T06:20:44.239Z,7.77
2022-12-08T06:23:14.201Z,7.53
2022-12-08T06:25:43.596Z,8.67
2022-12-08T06:28:12.116Z,9.50
2022-12-08T06:30:41.932Z,11.17
2022-12-08T06:33:10.482Z,10.97
2022-12-08T06:35:39.100Z,5.90
2022-12-08T06:38:07.634Z,9.73
2022-12-08T06:40:37.736Z,11.50
2022-12-08T06:43:06.330Z,11.17
2022-12-08T06:45:34.934Z,10.93
2022-12-08T06:48:03.755Z,10.67
2022-12-08T06:50:33.408Z,8.20
2022-12-08T06:53:05.396Z,11.37
2022-12-08T06:55:57.912Z,10.00
2022-12-08T06:58:25.732Z,11.07
2022-12-08T07:00:54.359Z,11.90
2022-12-08T07:03:23.076Z,11.93
2022-12-08T07:05:51.640Z,8.10
2022-12-08T07:08:20.345Z,6.13
2022-12-08T07:10:49.264Z,8.57
2022-12-08T07:13:17.825Z,10.97
2022-12-08T07:15:47.776Z,9.17
2022-12-08T07:18:16.369Z,14.23
2022-12-08T07:20:46.014Z,10.83
2022-12-08T07:23:14.652Z,7.30
2022-12-08T07:25:43.165Z,8.80
2022-12-08T07:28:12.606Z,10.63
2022-12-08T07:30:41.389Z,15.83
2022-12-08T07:33:11.520Z,9.67
2022-12-08T07:35:42.810Z,14.33
2022-12-08T07:38:13.728Z,18.73
2022-12-08T07:40:42.272Z,18.20
2022-12-08T07:43:10.984Z,16.30
2022-12-08T07:45:39.593Z,16.20
2022-12-08T07:48:08.519Z,14.43
2022-12-08T07:50:38.841Z,13.77
2022-12-08T07:53:08.973Z,12.33
2022-12-08T07:55:41.651Z,12.30
2022-12-08T07:58:10.669Z,18.97
2022-12-08T08:00:39.264Z,12.27
2022-12-08T08:03:09.051Z,12.70
2022-12-08T08:05:39.133Z,13.10
2022-12-08T08:08:07.825Z,13.90
2022-12-08T08:10:36.395Z,17.03
2022-12-08T08:13:04.899Z,24.90
2022-12-08T08:15:33.520Z,21.80
2022-12-08T08:18:02.263Z,13.97
2022-12-08T08:20:30.844Z,19.80
2022-12-08T08:23:00.859Z,17.20
2022-12-08T08:25:29.354Z,20.67
2022-12-08T08:27:57.903Z,15.17
2022-12-08T08:30:26.560Z,11.77
2022-12-08T08:32:55.220Z,12.57
2022-12-08T08:35:23.790Z,7.23
2022-12-08T08:37:52.533Z,9.53
2022-12-08T08:40:23.488Z,11.60
2022-12-08T08:42:53.751Z,14.57
2022-12-08T08:45:22.481Z,7.87
2022-12-08T08:47:51.915Z,19.17
2022-12-08T08:50:20.447Z,15.90
2022-12-08T08:52:49.181Z,16.20
2022-12-08T08:55:17.972Z,14.93
2022-12-08T08:57:48.010Z,15.50
2022-12-08T09:00:17.482Z,18.90
2022-12-08T09:02:46.043Z,12.33
2022-12-08T09:05:14.676Z,14.73
2022-12-08T09:07:43.282Z,15.27
2022-12-08T09:10:12.270Z,19.73
2022-12-08T09:12:40.845Z,13.23
2022-12-08T09:15:11.671Z,14.30
2022-12-08T09:17:40.929Z,16.77
2022-12-08T09:20:10.206Z,17.57
2022-12-08T09:22:39.739Z,14.53
2022-12-08T09:25:08.745Z,12.47
2022-12-08T09:27:38.193Z,16.37
2022-12-08T09:30:08.890Z,12.33
2022-12-08T09:32:39.004Z,15.60
2022-12-08T09:35:08.175Z,19.03
2022-12-08T09:37:36.816Z,12.23
2022-12-08T09:40:07.424Z,16.47
2022-12-08T09:42:43.953Z,12.50
2022-12-08T09:45:15.386Z,12.40
2022-12-08T09:47:54.331Z,13.63
2022-12-08T09:50:31.825Z,14.43
2022-12-08T09:53:07.347Z,12.93
2022-12-08T09:55:44.049Z,11.27
2022-12-08T09:58:22.855Z,15.90
2022-12-08T10:00:51.525Z,15.13
2022-12-08T10:03:24.171Z,16.70
2022-12-08T10:06:02.656Z,16.17
2022-12-08T10:08:36.595Z,16.53
2022-12-08T10:11:12.085Z,17.80
2022-12-08T10:13:47.741Z,13.23
2022-12-08T10:16:29.531Z,23.40
2022-12-08T10:19:12.336Z,20.00
2022-12-08T10:21:42.034Z,26.60
2022-12-08T10:24:17.946Z,27.37
2022-12-08T10:26:47.304Z,22.67
2022-12-08T10:29:16.252Z,22.97
2022-12-08T10:31:44.949Z,20.40
2022-12-08T10:34:20.277Z,27.40
2022-12-08T10:36:51.523Z,19.43
2022-12-08T10:39:32.404Z,21.13
2022-12-08T10:42:10.854Z,18.60
2022-12-08T10:44:57.121Z,21.67
2022-12-08T10:47:27.770Z,23.60
2022-12-08T10:50:18.385Z,17.90
2022-12-08T10:52:48.140Z,22.97
2022-12-08T10:55:18.698Z,21.03
2022-12-08T10:57:49.089Z,18.00
2022-12-08T11:00:20.193Z,20.27
2022-12-08T11:03:03.821Z,25.13
2022-12-08T11:05:37.084Z,20.77
2022-12-08T11:08:06.874Z,30.47
2022-12-08T11:10:37.933Z,20.33
2022-12-08T11:13:08.781Z,17.30
2022-12-08T11:15:41.614Z,25.17
2022-12-08T11:18:27.082Z,29.37
2022-12-08T11:21:09.029Z,23.80
2022-12-08T11:23:38.594Z,24.13
2022-12-08T11:26:14.094Z,35.67
2022-12-08T11:28:42.916Z,27.93
2022-12-08T11:31:23.833Z,26.37
2022-12-08T11:33:54.507Z,30.13
2022-12-08T11:36:27.297Z,28.70
2022-12-08T11:38:58.624Z,28.57
2022-12-08T11:41:31.035Z,27.47
2022-12-08T11:44:06.895Z,27.07
2022-12-08T11:46:42.351Z,26.17
2022-12-08T11:49:17.184Z,30.13
2022-12-08T11:51:52.104Z,25.97
2022-12-08T11:54:25.393Z,30.43
2022-12-08T11:56:57.095Z,24.30
2022-12-08T11:59:30.471Z,22.80
2022-12-08T12:01:59.526Z,27.30
2022-12-08T12:04:34.376Z,27.03
2022-12-08T12:07:40.029Z,23.90
2022-12-08T12:10:24.575Z,26.97
2022-12-08T12:13:09.796Z,27.47
2022-12-08T12:16:23.125Z,31.93
2022-12-08T12:18:54.053Z,30.20
2022-12-08T12:21:27.716Z,29.47
2022-12-08T12:24:02.220Z,30.47
2022-12-08T12:26:32.615Z,23.63
2022-12-08T12:29:04.831Z,46.50
2022-12-08T12:31:36.825Z,36.07
2022-12-08T12:34:09.806Z,36.40
2022-12-08T12:36:51.979Z,22.33
2022-12-08T12:39:28.741Z,26.40
2022-12-08T12:42:00.867Z,43.90
2022-12-08T12:44:41.039Z,28.60
2022-12-08T12:47:15.579Z,28.23
2022-12-08T12:50:06.319Z,35.07
2022-12-08T12:52:39.873Z,26.07
2022-12-08T12:55:52.034Z,28.57
2022-12-08T12:58:42.769Z,28.23
2022-12-08T13:01:47.893Z,27.77
2022-12-08T13:04:17.819Z,21.50
2022-12-08T13:06:49.922Z,32.87
2022-12-08T13:09:29.849Z,28.27
2022-12-08T13:12:01.719Z,31.60
2022-12-08T13:14:37.123Z,26.87
2022-12-08T13:17:12.720Z,33.27
2022-12-08T13:19:44.374Z,35.17
2022-12-08T13:22:52.100Z,28.60
2022-12-08T13:25:49.452Z,31.83
2022-12-08T13:28:28.359Z,28.90
2022-12-08T13:31:00.290Z,28.43
2022-12-08T13:33:32.805Z,30.00
2022-12-08T13:36:13.000Z,32.47
2022-12-08T13:38:44.414Z,28.10
2022-12-08T13:41:20.409Z,23.17
2022-12-08T13:44:50.443Z,29.30
2022-12-08T13:47:17.279Z,29.73
2022-12-08T13:54:16.312Z,34.93
2022-12-08T13:58:43.067Z,27.50
2022-12-08T14:01:16.992Z,31.80
2022-12-08T14:04:21.725Z,26.27
2022-12-08T14:06:43.900Z,27.77
2022-12-08T14:09:16.085Z,35.37
2022-12-08T14:11:48.694Z,29.33
2022-12-08T14:14:45.814Z,33.20
2022-12-08T14:17:12.941Z,28.57
2022-12-08T14:19:45.323Z,47.37
2022-12-08T14:22:15.031Z,27.80
2022-12-08T14:24:47.381Z,35.03
2022-12-08T14:27:18.272Z,42.30
2022-12-08T14:29:49.877Z,27.30
2022-12-08T14:32:28.128Z,33.33
2022-12-08T14:35:02.433Z,33.00
2022-12-08T14:37:34.409Z,32.07
2022-12-08T14:40:06.334Z,28.10
2022-12-08T14:42:45.655Z,32.83
2022-12-08T14:45:17.025Z,36.17
2022-12-08T14:47:47.078Z,30.90
2022-12-08T14:50:56.621Z,38.03
2022-12-08T14:53:25.840Z,29.70
2022-12-08T14:55:54.503Z,31.27
2022-12-08T14:58:28.984Z,37.10
2022-12-08T15:00:59.873Z,31.77
2022-12-08T15:03:30.219Z,30.57
2022-12-08T15:06:04.384Z,34.97
2022-12-08T15:08:51.261Z,27.43
2022-12-08T15:11:32.206Z,40.80
2022-12-08T15:14:01.131Z,34.27
2022-12-08T15:16:33.216Z,38.07
2022-12-08T15:19:19.751Z,35.70
2022-12-08T15:21:49.746Z,44.37
2022-12-08T15:24:20.790Z,41.03
2022-12-08T15:26:50.994Z,56.70
2022-12-08T15:29:23.500Z,59.13
2022-12-08T15:31:53.341Z,56.57
2022-12-08T15:34:22.144Z,58.30
2022-12-08T15:36:53.810Z,53.80
2022-12-08T15:39:37.394Z,39.00
2022-12-08T15:42:12.700Z,43.20
2022-12-08T15:44:43.440Z,48.93
2022-12-08T15:47:17.230Z,65.53
2022-12-08T15:49:47.031Z,60.80
2022-12-08T15:52:19.681Z,56.43
2022-12-08T15:54:49.151Z,60.93
2022-12-08T15:57:44.216Z,37.77
2022-12-08T16:00:51.980Z,34.80
2022-12-08T16:09:12.905Z,32.40
2022-12-08T16:12:09.562Z,30.07
2022-12-08T16:17:33.500Z,45.00
2022-12-08T16:20:03.378Z,47.40
2022-12-08T16:25:24.881Z,45.23
2022-12-08T16:30:44.213Z,48.03
2022-12-08T16:33:13.772Z,41.20
2022-12-08T16:35:43.260Z,37.70
2022-12-08T16:38:15.586Z,56.63
2022-12-08T16:41:05.747Z,44.93
2022-12-08T16:43:34.886Z,39.07
2022-12-08T16:46:03.928Z,39.93
2022-12-08T16:48:32.895Z,59.37
2022-12-08T16:51:01.565Z,41.50
2022-12-08T16:53:31.037Z,36.37
2022-12-08T16:56:01.049Z,38.17
2022-12-08T16:58:30.139Z,38.73
2022-12-08T17:00:58.716Z,44.53
2022-12-08T17:03:27.437Z,40.53
2022-12-08T17:05:56.058Z,41.10
2022-12-08T17:08:24.878Z,48.57
2022-12-08T17:11:07.433Z,39.50
2022-12-08T17:13:38.473Z,43.53
2022-12-08T17:16:11.002Z,54.13
2022-12-08T17:18:40.122Z,50.33
2022-12-08T17:21:12.293Z,48.80
2022-12-08T17:23:42.602Z,48.53
2022-12-08T17:26:11.323Z,48.30
2022-12-08T17:28:59.919Z,48.50
2022-12-08T17:31:30.810Z,40.80
2022-12-08T17:34:00.683Z,37.40
2022-12-08T17:36:29.451Z,37.83
2022-12-08T17:39:00.845Z,41.70
2022-12-08T17:41:29.722Z,36.50
2022-12-08T17:43:59.997Z,38.87
2022-12-08T17:46:28.769Z,41.47
2022-12-08T17:48:57.431Z,42.23
2022-12-08T17:51:26.556Z,44.60
2022-12-08T17:53:57.436Z,46.13
2022-12-08T17:56:26.044Z,47.80
2022-12-08T17:58:55.086Z,49.00
2022-12-08T18:01:27.347Z,43.30
2022-12-08T18:03:56.867Z,45.37
2022-12-08T18:06:29.623Z,54.07
2022-12-08T18:09:00.915Z,41.77
2022-12-08T18:11:30.671Z,41.20
2022-12-08T18:13:59.324Z,47.23
2022-12-08T18:16:29.721Z,40.17
2022-12-08T18:18:58.362Z,37.27
2022-12-08T18:21:26.892Z,41.60
2022-12-08T18:23:55.521Z,42.70
2022-12-08T18:26:24.164Z,41.77
2022-12-08T18:28:52.885Z,35.97
2022-12-08T18:31:23.710Z,43.37
2022-12-08T18:33:57.591Z,44.97
2022-12-08T18:36:27.393Z,40.07
2022-12-08T18:38:56.043Z,43.53
2022-12-08T18:41:26.914Z,37.97
2022-12-08T18:43:57.200Z,47.07
2022-12-08T18:46:28.221Z,37.53
2022-12-08T18:48:59.798Z,30.37
2022-12-08T18:51:28.853Z,37.70
2022-12-08T18:53:59.475Z,36.30
2022-12-08T18:56:31.760Z,34.53
2022-12-08T18:59:03.835Z,38.07
2022-12-08T19:01:33.702Z,34.60
2022-12-08T19:06:57.504Z,40.57
2022-12-08T19:09:27.071Z,27.33
2022-12-08T19:11:56.274Z,33.97
2022-12-08T19:14:28.254Z,34.20
2022-12-08T19:16:58.671Z,34.63
2022-12-08T19:19:31.260Z,34.00
2022-12-08T19:21:59.930Z,34.77
2022-12-08T19:24:29.074Z,36.50
2022-12-08T19:26:57.985Z,36.53
2022-12-08T19:29:26.551Z,33.43
2022-12-08T19:31:55.868Z,48.97
2022-12-08T19:34:24.899Z,46.87
2022-12-08T19:36:55.063Z,32.17
2022-12-08T19:39:42.439Z,39.87
2022-12-08T19:42:33.685Z,37.13
2022-12-08T19:45:11.935Z,33.27
2022-12-08T19:47:42.174Z,25.57
2022-12-08T19:50:30.115Z,30.90
2022-12-08T19:53:01.430Z,32.20
2022-12-08T19:55:30.288Z,40.33
2022-12-08T19:57:59.819Z,39.67
2022-12-08T20:00:28.775Z,42.57
2022-12-08T20:02:57.948Z,38.17
2022-12-08T20:05:26.666Z,36.80
2022-12-08T20:07:56.280Z,33.83
2022-12-08T20:10:29.261Z,42.37
2022-12-08T20:13:12.118Z,31.67
2022-12-08T20:15:40.847Z,32.43
2022-12-08T20:18:09.708Z,39.60
2022-12-08T20:20:40.277Z,31.83
2022-12-08T20:23:09.307Z,30.33
2022-12-08T20:25:41.256Z,39.13
2022-12-08T20:28:10.391Z,35.63
2022-12-08T20:30:40.434Z,37.83
2022-12-08T20:33:09.570Z,32.33
2022-12-08T20:50:05.064Z,40.20
2022-12-08T20:52:34.138Z,38.27
2022-12-08T20:55:03.002Z,39.43
2022-12-08T20:57:31.578Z,39.00
2022-12-08T21:00:00.041Z,38.77
2022-12-08T21:02:29.133Z,41.40
2022-12-08T21:04:57.901Z,40.03
2022-12-08T21:07:27.835Z,41.63
2022-12-08T21:09:56.333Z,52.20
2022-12-08T21:12:24.812Z,34.23
2022-12-08T21:14:53.413Z,41.97
2022-12-08T21:17:21.953Z,36.77
2022-12-08T21:19:50.457Z,37.37
2022-12-08T21:22:19.312Z,42.93
2022-12-08T21:24:49.622Z,38.83
2022-12-08T21:27:18.140Z,35.67
2022-12-08T21:29:46.645Z,32.30
2022-12-08T21:32:15.331Z,26.20
2022-12-08T21:34:44.297Z,29.50
2022-12-08T21:37:13.642Z,29.43
2022-12-08T21:39:42.173Z,37.83
2022-12-08T21:42:34.086Z,34.93
2022-12-08T21:45:03.200Z,36.43
2022-12-08T21:47:31.780Z,29.73
2022-12-08T21:50:00.529Z,37.60
2022-12-08T21:52:29.093Z,28.83
2022-12-08T21:54:57.751Z,33.40
2022-12-08T21:57:27.583Z,30.23
2022-12-08T21:59:56.208Z,34.20
2022-12-08T22:02:24.728Z,32.97
2022-12-08T22:04:53.880Z,33.53
2022-12-08T22:07:25.740Z,37.93
2022-12-08T22:09:55.199Z,32.70
2022-12-08T22:12:23.923Z,28.03
2022-12-08T22:14:53.843Z,31.77
2022-12-08T22:17:22.359Z,36.60
2022-12-08T22:19:51.016Z,37.23
2022-12-08T22:22:19.643Z,33.60
2022-12-08T22:24:48.276Z,34.17
2022-12-08T22:27:16.938Z,34.13
2022-12-08T22:29:46.047Z,23.27
2022-12-08T22:32:16.071Z,30.57
2022-12-08T22:34:44.691Z,30.37
2022-12-08T22:37:13.330Z,33.10
2022-12-08T22:39:42.068Z,29.37
2022-12-08T22:42:10.718Z,41.63
2022-12-08T22:44:39.208Z,27.87
2022-12-08T22:47:08.032Z,26.20
2022-12-08T22:49:38.240Z,29.73
2022-12-08T22:52:06.953Z,27.77
2022-12-08T22:54:35.664Z,25.30
2022-12-08T22:57:04.224Z,39.47
2022-12-08T22:59:33.455Z,35.77
2022-12-08T23:02:01.881Z,29.50
2022-12-08T23:04:30.504Z,29.10
2022-12-08T23:07:00.483Z,30.33
2022-12-08T23:09:29.447Z,33.20
2022-12-08T23:11:58.130Z,34.70
2022-12-08T23:14:28.866Z,32.93
2022-12-08T23:16:57.566Z,28.50
2022-12-08T23:19:26.299Z,35.67
2022-12-08T23:21:55.104Z,33.40
2022-12-08T23:24:25.019Z,30.30
2022-12-08T23:26:53.482Z,33.23
2022-12-08T23:29:21.939Z,31.60
2022-12-08T23:31:50.657Z,36.30
2022-12-08T23:34:19.411Z,36.13
2022-12-08T23:36:48.090Z,34.37
2022-12-08T23:39:16.790Z,26.83
2022-12-08T23:41:46.766Z,31.03
2022-12-08T23:44:15.387Z,39.43
2022-12-08T23:46:43.947Z,33.20
2022-12-08T23:49:12.881Z,40.00
2022-12-08T23:51:41.438Z,40.60
2022-12-08T23:54:10.167Z,33.63
2022-12-08T23:56:38.650Z,44.10
2022-12-08T23:59:08.640Z,31.03
